createdAt,value
2022-09-26T00:00:35.221Z,0.00
2022-09-26T00:01:35.261Z,0.00
2022-09-26T00:02:35.220Z,0.00
2022-09-26T00:03:35.158Z,0.00
2022-09-26T00:04:35.171Z,0.00
2022-09-26T00:05:35.131Z,0.00
2022-09-26T00:06:35.144Z,0.00
2022-09-26T00:07:35.119Z,0.00
2022-09-26T00:08:35.091Z,0.00
2022-09-26T00:09:35.101Z,0.00
2022-09-26T00:10:35.063Z,0.00
2022-09-26T00:11:35.077Z,0.00
2022-09-26T00:12:35.042Z,0.00
2022-09-26T00:13:35.042Z,0.00
2022-09-26T00:14:35.025Z,0.00
2022-09-26T00:15:35.029Z,0.00
2022-09-26T00:16:35.055Z,0.00
2022-09-26T00:17:34.982Z,0.00
2022-09-26T00:18:34.979Z,0.00
2022-09-26T00:19:34.959Z,0.00
2022-09-26T00:20:34.951Z,0.00
2022-09-26T00:21:34.932Z,0.00
2022-09-26T00:22:34.908Z,0.00
2022-09-26T00:23:34.898Z,0.00
2022-09-26T00:24:34.896Z,0.00
2022-09-26T00:25:34.977Z,0.00
2022-09-26T00:26:34.869Z,0.00
2022-09-26T00:27:34.847Z,0.00
2022-09-26T00:28:34.857Z,0.00
2022-09-26T00:29:34.827Z,0.00
2022-09-26T00:30:34.846Z,0.00
2022-09-26T00:31:34.829Z,0.00
2022-09-26T00:32:34.776Z,0.00
2022-09-26T00:33:34.784Z,0.00
2022-09-26T00:34:34.764Z,0.00
2022-09-26T00:35:34.776Z,0.00
2022-09-26T00:36:38.313Z,0.00
2022-09-26T00:37:34.724Z,0.00
2022-09-26T00:38:34.715Z,0.00
2022-09-26T00:39:34.698Z,0.00
2022-09-26T00:40:34.754Z,0.00
2022-09-26T00:41:34.705Z,0.00
2022-09-26T00:42:34.654Z,0.00
2022-09-26T00:43:34.647Z,0.00
2022-09-26T00:44:34.628Z,0.00
2022-09-26T00:45:34.688Z,0.00
2022-09-26T00:46:34.606Z,0.00
2022-09-26T00:47:34.603Z,0.00
2022-09-26T00:48:34.579Z,0.00
2022-09-26T00:49:34.570Z,0.00
2022-09-26T00:50:34.567Z,0.00
2022-09-26T00:51:34.540Z,0.00
2022-09-26T00:52:34.533Z,0.00
2022-09-26T00:53:34.535Z,0.00
2022-09-26T00:54:34.502Z,0.00
2022-09-26T00:55:34.482Z,0.00
2022-09-26T00:56:34.467Z,0.00
2022-09-26T00:57:34.512Z,0.00
2022-09-26T00:58:34.452Z,0.00
2022-09-26T00:59:34.431Z,0.00
2022-09-26T01:00:34.419Z,0.00
2022-09-26T01:01:34.501Z,0.00
2022-09-26T01:02:34.533Z,0.00
2022-09-26T01:03:34.399Z,0.00
2022-09-26T01:04:34.375Z,0.00
2022-09-26T01:05:34.352Z,0.00
2022-09-26T01:06:34.340Z,0.00
2022-09-26T01:07:34.342Z,0.00
2022-09-26T01:08:34.330Z,0.00
2022-09-26T01:09:34.308Z,0.00
2022-09-26T01:10:34.340Z,0.00
2022-09-26T01:11:34.285Z,0.00
2022-09-26T01:12:34.260Z,0.00
2022-09-26T01:13:34.279Z,0.00
2022-09-26T01:14:34.240Z,0.00
2022-09-26T01:15:34.230Z,0.00
2022-09-26T01:16:34.311Z,0.00
2022-09-26T01:17:34.216Z,0.00
2022-09-26T01:18:34.213Z,0.00
2022-09-26T01:19:34.232Z,0.00
2022-09-26T01:20:34.161Z,0.00
2022-09-26T01:21:34.160Z,0.00
2022-09-26T01:22:34.143Z,0.00
2022-09-26T01:23:34.128Z,0.00
2022-09-26T01:24:34.146Z,0.00
2022-09-26T01:25:34.104Z,0.00
2022-09-26T01:26:34.078Z,0.00
2022-09-26T01:27:34.084Z,0.00
2022-09-26T01:28:34.059Z,0.00
2022-09-26T01:29:34.069Z,0.00
2022-09-26T01:30:34.096Z,0.00
2022-09-26T01:31:34.027Z,0.00
2022-09-26T01:32:34.009Z,0.00
2022-09-26T01:33:34.001Z,0.00
2022-09-26T01:34:33.995Z,0.00
2022-09-26T01:35:33.975Z,0.00
2022-09-26T01:36:33.964Z,0.00
2022-09-26T01:37:33.945Z,0.00
2022-09-26T01:38:33.936Z,0.00
2022-09-26T01:39:33.927Z,0.00
2022-09-26T01:40:33.970Z,0.00
2022-09-26T01:41:33.887Z,0.00
2022-09-26T01:42:33.884Z,0.00
2022-09-26T01:43:33.865Z,0.00
2022-09-26T01:44:33.845Z,0.00
2022-09-26T01:45:33.921Z,0.00
2022-09-26T01:46:33.826Z,0.00
2022-09-26T01:47:33.833Z,0.00
2022-09-26T01:48:33.819Z,0.00
2022-09-26T01:49:33.784Z,0.00
2022-09-26T01:50:33.783Z,0.00
2022-09-26T01:51:33.755Z,0.00
2022-09-26T01:52:33.742Z,0.00
2022-09-26T01:53:33.745Z,0.00
2022-09-26T01:54:33.714Z,0.00
2022-09-26T01:55:33.720Z,0.00
2022-09-26T01:56:33.692Z,0.00
2022-09-26T01:57:33.684Z,0.00
2022-09-26T01:58:33.662Z,0.00
2022-09-26T01:59:33.663Z,0.00
2022-09-26T02:00:33.642Z,0.00
2022-09-26T02:01:33.727Z,0.00
2022-09-26T02:02:33.661Z,0.00
2022-09-26T02:03:33.611Z,0.00
2022-09-26T02:04:33.598Z,0.00
2022-09-26T02:05:33.581Z,0.00
2022-09-26T02:06:33.584Z,0.00
2022-09-26T02:07:33.552Z,0.00
2022-09-26T02:08:33.541Z,0.00
2022-09-26T02:09:33.521Z,0.00
2022-09-26T02:10:33.509Z,0.00
2022-09-26T02:11:33.522Z,0.00
2022-09-26T02:12:33.489Z,0.00
2022-09-26T02:13:33.491Z,0.00
2022-09-26T02:14:33.469Z,0.00
2022-09-26T02:15:33.450Z,0.00
2022-09-26T02:16:33.520Z,0.00
2022-09-26T02:17:33.439Z,0.00
2022-09-26T02:18:33.416Z,0.00
2022-09-26T02:19:33.397Z,0.00
2022-09-26T02:20:33.386Z,0.00
2022-09-26T02:21:33.374Z,0.00
2022-09-26T02:22:33.368Z,0.00
2022-09-26T02:23:33.349Z,0.00
2022-09-26T02:24:33.335Z,0.00
2022-09-26T02:25:33.329Z,0.00
2022-09-26T02:26:33.307Z,0.00
2022-09-26T02:27:33.308Z,0.00
2022-09-26T02:28:33.317Z,0.00
2022-09-26T02:29:33.276Z,0.00
2022-09-26T02:30:33.258Z,0.00
2022-09-26T02:31:33.288Z,0.00
2022-09-26T02:32:33.255Z,0.00
2022-09-26T02:33:33.233Z,0.00
2022-09-26T02:34:33.208Z,0.00
2022-09-26T02:35:33.209Z,0.00
2022-09-26T02:36:33.176Z,0.00
2022-09-26T02:37:33.185Z,0.00
2022-09-26T02:38:33.165Z,0.00
2022-09-26T02:39:33.143Z,0.00
2022-09-26T02:40:33.179Z,0.00
2022-09-26T02:41:33.125Z,0.00
2022-09-26T02:42:33.096Z,0.00
2022-09-26T02:43:33.122Z,0.00
2022-09-26T02:44:33.074Z,0.00
2022-09-26T02:45:33.159Z,0.00
2022-09-26T02:46:33.053Z,0.00
2022-09-26T02:47:33.044Z,0.00
2022-09-26T02:48:33.045Z,0.00
2022-09-26T02:49:33.022Z,0.00
2022-09-26T02:50:33.748Z,0.00
2022-09-26T02:51:32.993Z,0.00
2022-09-26T02:52:32.976Z,0.00
2022-09-26T02:53:32.955Z,0.00
2022-09-26T02:54:32.958Z,0.00
2022-09-26T02:55:32.934Z,0.00
2022-09-26T02:56:32.922Z,0.00
2022-09-26T02:57:32.914Z,0.00
2022-09-26T02:58:32.905Z,0.00
2022-09-26T02:59:32.891Z,0.00
2022-09-26T03:00:32.864Z,0.00
2022-09-26T03:01:32.897Z,0.00
2022-09-26T03:02:32.855Z,0.00
2022-09-26T03:03:32.856Z,0.00
2022-09-26T03:04:32.875Z,0.00
2022-09-26T03:05:32.809Z,0.00
2022-09-26T03:06:32.816Z,0.00
2022-09-26T03:07:32.783Z,0.00
2022-09-26T03:08:32.768Z,0.00
2022-09-26T03:09:32.779Z,0.00
2022-09-26T03:10:32.748Z,0.00
2022-09-26T03:11:32.741Z,0.00
2022-09-26T03:12:32.722Z,0.00
2022-09-26T03:13:32.711Z,0.00
2022-09-26T03:14:32.698Z,0.00
2022-09-26T03:15:32.687Z,0.00
2022-09-26T03:16:32.716Z,0.00
2022-09-26T03:17:32.660Z,0.00
2022-09-26T03:18:32.634Z,0.00
2022-09-26T03:19:32.625Z,0.00
2022-09-26T03:20:32.629Z,0.00
2022-09-26T03:21:36.158Z,0.00
2022-09-26T03:22:32.588Z,0.00
2022-09-26T03:23:32.566Z,0.00
2022-09-26T03:24:32.564Z,0.00
2022-09-26T03:25:32.568Z,0.00
2022-09-26T03:26:32.537Z,0.00
2022-09-26T03:27:32.519Z,0.00
2022-09-26T03:28:37.488Z,0.00
2022-09-26T03:29:33.493Z,0.00
2022-09-26T03:30:32.498Z,0.00
2022-09-26T03:31:32.544Z,0.00
2022-09-26T03:32:32.455Z,0.00
2022-09-26T03:33:32.435Z,0.00
2022-09-26T03:34:32.435Z,0.00
2022-09-26T03:35:32.414Z,0.00
2022-09-26T03:36:32.418Z,0.00
2022-09-26T03:37:32.394Z,0.00
2022-09-26T03:38:32.387Z,0.00
2022-09-26T03:39:32.377Z,0.00
2022-09-26T03:40:32.504Z,0.00
2022-09-26T03:41:32.354Z,0.00
2022-09-26T03:42:32.324Z,0.00
2022-09-26T03:43:32.312Z,0.00
2022-09-26T03:44:32.303Z,0.00
2022-09-26T03:45:32.324Z,0.00
2022-09-26T03:46:35.097Z,0.00
2022-09-26T03:47:33.256Z,0.00
2022-09-26T03:48:32.243Z,0.00
2022-09-26T03:49:32.233Z,0.00
2022-09-26T03:50:32.222Z,0.00
2022-09-26T03:51:32.204Z,0.00
2022-09-26T03:52:32.211Z,0.00
2022-09-26T03:53:32.181Z,0.00
2022-09-26T03:54:32.200Z,0.00
2022-09-26T03:55:32.154Z,0.00
2022-09-26T03:56:32.150Z,0.00
2022-09-26T03:57:32.139Z,0.00
2022-09-26T03:58:32.121Z,0.00
2022-09-26T03:59:32.100Z,0.00
2022-09-26T04:00:32.164Z,0.00
2022-09-26T04:01:32.120Z,0.00
2022-09-26T04:02:32.193Z,0.00
2022-09-26T04:03:32.051Z,0.00
2022-09-26T04:04:32.039Z,0.00
2022-09-26T04:05:32.023Z,0.00
2022-09-26T04:06:32.020Z,0.00
2022-09-26T04:07:32.025Z,0.00
2022-09-26T04:08:31.992Z,0.00
2022-09-26T04:09:31.969Z,0.00
2022-09-26T04:10:31.968Z,0.00
2022-09-26T04:11:31.938Z,0.00
2022-09-26T04:12:31.935Z,0.00
2022-09-26T04:13:50.736Z,0.00
2022-09-26T04:14:32.920Z,0.00
2022-09-26T04:15:31.891Z,0.00
2022-09-26T04:16:31.947Z,0.00
2022-09-26T04:17:31.868Z,0.00
2022-09-26T04:18:31.877Z,0.00
2022-09-26T04:19:31.842Z,0.00
2022-09-26T04:20:31.828Z,0.00
2022-09-26T04:21:31.816Z,0.00
2022-09-26T04:22:31.797Z,0.00
2022-09-26T04:23:31.797Z,0.00
2022-09-26T04:24:31.777Z,0.00
2022-09-26T04:25:31.767Z,0.00
2022-09-26T04:26:31.757Z,0.00
2022-09-26T04:27:31.737Z,0.00
2022-09-26T04:28:32.464Z,0.00
2022-09-26T04:29:31.708Z,0.00
2022-09-26T04:30:31.706Z,0.00
2022-09-26T04:31:31.764Z,0.00
2022-09-26T04:32:31.675Z,0.00
2022-09-26T04:33:31.668Z,0.00
2022-09-26T04:34:31.664Z,0.00
2022-09-26T04:35:31.635Z,0.00
2022-09-26T04:36:31.624Z,0.00
2022-09-26T04:37:31.614Z,0.00
2022-09-26T04:38:31.613Z,0.00
2022-09-26T04:39:31.595Z,0.00
2022-09-26T04:40:31.662Z,0.00
2022-09-26T04:41:31.562Z,0.00
2022-09-26T04:42:31.545Z,0.00
2022-09-26T04:43:31.532Z,0.00
2022-09-26T04:44:31.585Z,0.00
2022-09-26T04:45:31.532Z,0.00
2022-09-26T04:46:31.709Z,0.00
2022-09-26T04:47:31.473Z,0.00
2022-09-26T04:48:31.462Z,0.00
2022-09-26T04:49:31.465Z,0.00
2022-09-26T04:50:31.452Z,0.00
2022-09-26T04:51:31.424Z,0.00
2022-09-26T04:52:31.430Z,0.00
2022-09-26T04:53:31.400Z,0.00
2022-09-26T04:54:31.390Z,0.00
2022-09-26T04:55:31.391Z,0.00
2022-09-26T04:56:31.367Z,0.00
2022-09-26T04:57:31.353Z,0.00
2022-09-26T04:58:31.350Z,0.00
2022-09-26T04:59:31.320Z,0.00
2022-09-26T05:00:31.422Z,0.00
2022-09-26T05:01:31.363Z,0.00
2022-09-26T05:02:31.371Z,0.00
2022-09-26T05:03:31.277Z,0.00
2022-09-26T05:04:31.269Z,0.00
2022-09-26T05:05:31.248Z,0.00
2022-09-26T05:06:31.247Z,0.00
2022-09-26T05:07:31.226Z,4.00
2022-09-26T05:08:31.225Z,4.00
2022-09-26T05:09:35.734Z,0.00
2022-09-26T05:10:32.180Z,0.00
2022-09-26T05:11:31.178Z,4.00
2022-09-26T05:12:31.158Z,4.00
2022-09-26T05:13:31.147Z,0.00
2022-09-26T05:14:31.137Z,4.00
2022-09-26T05:15:31.116Z,4.00
2022-09-26T05:16:31.349Z,4.00
2022-09-26T05:17:31.088Z,4.00
2022-09-26T05:18:31.076Z,8.00
2022-09-26T05:19:31.063Z,8.00
2022-09-26T05:20:31.045Z,12.00
2022-09-26T05:21:31.050Z,12.00
2022-09-26T05:22:31.029Z,12.00
2022-09-26T05:23:31.013Z,16.00
2022-09-26T05:24:31.007Z,16.00
2022-09-26T05:25:30.984Z,20.00
2022-09-26T05:26:30.988Z,20.00
2022-09-26T05:27:30.963Z,20.00
2022-09-26T05:28:30.945Z,16.00
2022-09-26T05:29:30.947Z,20.00
2022-09-26T05:30:30.926Z,16.00
2022-09-26T05:31:30.958Z,16.00
2022-09-26T05:32:30.895Z,20.00
2022-09-26T05:33:30.882Z,20.00
2022-09-26T05:34:30.873Z,24.00
2022-09-26T05:35:30.853Z,24.00
2022-09-26T05:36:30.882Z,24.00
2022-09-26T05:37:30.834Z,32.00
2022-09-26T05:38:30.822Z,32.00
2022-09-26T05:39:30.803Z,36.00
2022-09-26T05:40:30.825Z,40.00
2022-09-26T05:41:30.781Z,40.00
2022-09-26T05:42:30.781Z,44.00
2022-09-26T05:43:30.751Z,48.00
2022-09-26T05:44:30.751Z,52.00
2022-09-26T05:45:30.850Z,56.00
2022-09-26T05:46:30.754Z,60.00
2022-09-26T05:47:30.720Z,64.00
2022-09-26T05:48:30.701Z,72.00
2022-09-26T05:49:30.674Z,80.00
2022-09-26T05:50:30.689Z,84.00
2022-09-26T05:51:30.650Z,92.00
2022-09-26T05:52:30.660Z,100.00
2022-09-26T05:53:30.621Z,104.00
2022-09-26T05:54:30.610Z,108.00
2022-09-26T05:55:30.600Z,116.00
2022-09-26T05:56:30.597Z,124.00
2022-09-26T05:57:30.569Z,128.00
2022-09-26T05:58:30.581Z,136.00
2022-09-26T05:59:30.538Z,140.00
2022-09-26T06:00:30.550Z,148.00
2022-09-26T06:01:30.596Z,152.00
2022-09-26T06:02:30.559Z,160.00
2022-09-26T06:03:30.511Z,164.00
2022-09-26T06:04:30.487Z,164.00
2022-09-26T06:05:30.467Z,168.00
2022-09-26T06:06:30.494Z,172.00
2022-09-26T06:07:30.446Z,180.00
2022-09-26T06:08:30.449Z,180.00
2022-09-26T06:09:30.416Z,188.00
2022-09-26T06:10:30.418Z,196.00
2022-09-26T06:11:30.387Z,200.00
2022-09-26T06:12:30.379Z,204.00
2022-09-26T06:13:30.386Z,208.00
2022-09-26T06:14:30.355Z,208.00
2022-09-26T06:15:30.356Z,212.00
2022-09-26T06:16:30.446Z,216.00
2022-09-26T06:17:30.319Z,220.00
2022-09-26T06:18:30.294Z,224.00
2022-09-26T06:19:30.305Z,224.00
2022-09-26T06:20:30.267Z,228.00
2022-09-26T06:21:30.274Z,228.00
2022-09-26T06:22:30.246Z,228.00
2022-09-26T06:23:30.245Z,232.00
2022-09-26T06:24:30.224Z,232.00
2022-09-26T06:25:30.208Z,236.00
2022-09-26T06:26:30.199Z,240.00
2022-09-26T06:27:30.184Z,244.00
2022-09-26T06:28:30.226Z,244.00
2022-09-26T06:29:30.176Z,248.00
2022-09-26T06:30:30.145Z,248.00
2022-09-26T06:31:30.276Z,244.00
2022-09-26T06:32:30.114Z,240.00
2022-09-26T06:33:33.444Z,240.00
2022-09-26T06:34:30.103Z,240.00
2022-09-26T06:35:30.086Z,244.00
2022-09-26T06:36:30.075Z,248.00
2022-09-26T06:37:30.069Z,248.00
2022-09-26T06:38:30.042Z,256.00
2022-09-26T06:39:30.062Z,252.00
2022-09-26T06:40:30.062Z,256.00
2022-09-26T06:41:30.003Z,252.00
2022-09-26T06:42:29.992Z,252.00
2022-09-26T06:43:29.977Z,248.00
2022-09-26T06:44:30.010Z,244.00
2022-09-26T06:45:29.960Z,240.00
2022-09-26T06:46:29.978Z,232.00
2022-09-26T06:47:29.920Z,232.00
2022-09-26T06:48:29.910Z,228.00
2022-09-26T06:49:29.930Z,228.00
2022-09-26T06:50:29.890Z,232.00
2022-09-26T06:51:29.869Z,232.00
2022-09-26T06:52:29.857Z,232.00
2022-09-26T06:53:29.847Z,232.00
2022-09-26T06:54:29.844Z,228.00
2022-09-26T06:55:29.829Z,224.00
2022-09-26T06:56:29.809Z,216.00
2022-09-26T06:57:29.797Z,208.00
2022-09-26T06:58:29.788Z,204.00
2022-09-26T06:59:29.767Z,196.00
2022-09-26T07:00:29.813Z,200.00
2022-09-26T07:01:29.883Z,212.00
2022-09-26T07:02:29.728Z,224.00
2022-09-26T07:03:29.728Z,236.00
2022-09-26T07:04:29.716Z,244.00
2022-09-26T07:05:29.707Z,256.00
2022-09-26T07:06:29.677Z,264.00
2022-09-26T07:07:29.666Z,268.00
2022-09-26T07:08:50.467Z,268.00
2022-09-26T07:09:30.637Z,264.00
2022-09-26T07:10:29.635Z,260.00
2022-09-26T07:11:50.366Z,256.00
2022-09-26T07:12:30.606Z,252.00
2022-09-26T07:13:29.585Z,248.00
2022-09-26T07:14:29.580Z,248.00
2022-09-26T07:15:29.557Z,248.00
2022-09-26T07:16:29.640Z,248.00
2022-09-26T07:17:29.535Z,252.00
2022-09-26T07:18:29.524Z,256.00
2022-09-26T07:19:29.504Z,260.00
2022-09-26T07:20:29.484Z,268.00
2022-09-26T07:21:29.494Z,272.00
2022-09-26T07:22:29.475Z,276.00
2022-09-26T07:23:29.463Z,280.00
2022-09-26T07:24:29.445Z,284.00
2022-09-26T07:25:29.427Z,288.00
2022-09-26T07:26:29.433Z,296.00
2022-09-26T07:27:29.408Z,304.00
2022-09-26T07:28:29.401Z,308.00
2022-09-26T07:29:29.377Z,188.00
2022-09-26T07:30:29.373Z,316.00
2022-09-26T07:31:29.422Z,328.00
2022-09-26T07:32:29.350Z,332.00
2022-09-26T07:33:29.322Z,344.00
2022-09-26T07:34:29.313Z,348.00
2022-09-26T07:35:29.312Z,348.00
2022-09-26T07:36:29.310Z,352.00
2022-09-26T07:37:29.289Z,360.00
2022-09-26T07:38:29.270Z,360.00
2022-09-26T07:39:29.251Z,372.00
2022-09-26T07:40:29.295Z,372.00
2022-09-26T07:41:29.229Z,376.00
2022-09-26T07:42:29.212Z,376.00
2022-09-26T07:44:04.502Z,372.00
2022-09-26T07:45:30.306Z,364.00
2022-09-26T07:46:29.216Z,364.00
2022-09-26T07:47:29.139Z,356.00
2022-09-26T07:48:29.140Z,348.00
2022-09-26T07:49:29.119Z,344.00
2022-09-26T07:50:29.115Z,344.00
2022-09-26T07:51:29.098Z,340.00
2022-09-26T07:52:29.098Z,340.00
2022-09-26T07:53:29.059Z,340.00
2022-09-26T07:54:29.066Z,336.00
2022-09-26T07:55:29.050Z,332.00
2022-09-26T07:56:29.028Z,328.00
2022-09-26T07:57:29.028Z,324.00
2022-09-26T07:58:29.007Z,312.00
2022-09-26T07:59:28.987Z,304.00
2022-09-26T08:00:28.989Z,296.00
2022-09-26T08:01:29.017Z,284.00
2022-09-26T08:02:29.097Z,276.00
2022-09-26T08:03:28.937Z,272.00
2022-09-26T08:04:28.926Z,264.00
2022-09-26T08:05:28.906Z,260.00
2022-09-26T08:06:28.906Z,256.00
2022-09-26T08:07:28.896Z,252.00
2022-09-26T08:08:28.876Z,256.00
2022-09-26T08:09:28.871Z,252.00
2022-09-26T08:10:28.846Z,256.00
2022-09-26T08:11:28.825Z,256.00
2022-09-26T08:12:28.857Z,248.00
2022-09-26T08:13:28.804Z,240.00
2022-09-26T08:14:28.806Z,232.00
2022-09-26T08:15:28.778Z,232.00
2022-09-26T08:16:28.922Z,232.00
2022-09-26T08:17:28.755Z,240.00
2022-09-26T08:18:28.753Z,240.00
2022-09-26T08:19:28.723Z,244.00
2022-09-26T08:20:32.197Z,252.00
2022-09-26T08:21:28.701Z,248.00
2022-09-26T08:22:28.698Z,252.00
2022-09-26T08:23:28.696Z,248.00
2022-09-26T08:24:28.683Z,256.00
2022-09-26T08:25:28.651Z,252.00
2022-09-26T08:26:28.674Z,256.00
2022-09-26T08:27:28.659Z,264.00
2022-09-26T08:28:28.634Z,276.00
2022-09-26T08:29:28.592Z,288.00
2022-09-26T08:30:28.603Z,296.00
2022-09-26T08:31:28.598Z,300.00
2022-09-26T08:32:28.569Z,304.00
2022-09-26T08:33:28.562Z,312.00
2022-09-26T08:34:28.555Z,316.00
2022-09-26T08:35:28.520Z,324.00
2022-09-26T08:36:28.523Z,332.00
2022-09-26T08:37:28.491Z,348.00
2022-09-26T08:38:28.488Z,356.00
2022-09-26T08:39:33.091Z,360.00
2022-09-26T08:40:29.505Z,356.00
2022-09-26T08:41:28.440Z,352.00
2022-09-26T08:42:28.431Z,360.00
2022-09-26T08:43:28.420Z,368.00
2022-09-26T08:44:28.427Z,344.00
2022-09-26T08:45:28.399Z,304.00
2022-09-26T08:46:28.463Z,308.00
2022-09-26T08:47:28.369Z,312.00
2022-09-26T08:48:28.367Z,316.00
2022-09-26T08:49:28.356Z,304.00
2022-09-26T08:50:28.354Z,304.00
2022-09-26T08:51:29.351Z,300.00
2022-09-26T08:52:28.299Z,284.00
2022-09-26T08:53:28.288Z,268.00
2022-09-26T08:54:28.279Z,244.00
2022-09-26T08:55:28.268Z,224.00
2022-09-26T08:56:28.256Z,216.00
2022-09-26T08:57:28.227Z,220.00
2022-09-26T08:58:29.173Z,224.00
2022-09-26T08:59:28.210Z,224.00
2022-09-26T09:00:28.218Z,212.00
2022-09-26T09:01:28.208Z,208.00
2022-09-26T09:02:28.272Z,212.00
2022-09-26T09:03:28.167Z,228.00
2022-09-26T09:04:28.157Z,252.00
2022-09-26T09:05:28.157Z,280.00
2022-09-26T09:06:28.127Z,300.00
2022-09-26T09:07:28.096Z,324.00
2022-09-26T09:08:28.096Z,340.00
2022-09-26T09:09:28.087Z,332.00
2022-09-26T09:10:28.075Z,308.00
2022-09-26T09:11:28.105Z,272.00
2022-09-26T09:12:32.087Z,264.00
2022-09-26T09:13:28.027Z,284.00
2022-09-26T09:14:28.016Z,292.00
2022-09-26T09:15:28.004Z,292.00
2022-09-26T09:16:28.095Z,284.00
2022-09-26T09:17:27.973Z,280.00
2022-09-26T09:18:27.962Z,256.00
2022-09-26T09:19:27.944Z,216.00
2022-09-26T09:20:27.933Z,196.00
2022-09-26T09:21:27.933Z,184.00
2022-09-26T09:22:27.914Z,196.00
2022-09-26T09:23:27.904Z,216.00
2022-09-26T09:24:27.881Z,308.00
2022-09-26T09:25:27.870Z,404.00
2022-09-26T09:28:28.831Z,516.00
2022-09-26T09:29:27.820Z,524.00
2022-09-26T09:30:27.803Z,552.00
2022-09-26T09:31:27.875Z,572.00
2022-09-26T09:32:27.786Z,556.00
2022-09-26T09:33:28.606Z,520.00
2022-09-26T09:34:27.750Z,492.00
2022-09-26T09:35:27.742Z,468.00
2022-09-26T09:36:27.731Z,432.00
2022-09-26T09:37:27.730Z,384.00
2022-09-26T09:38:27.704Z,336.00
2022-09-26T09:39:27.700Z,304.00
2022-09-26T09:40:27.751Z,268.00
2022-09-26T09:41:27.669Z,240.00
2022-09-26T09:42:27.659Z,228.00
2022-09-26T09:43:27.640Z,252.00
2022-09-26T09:44:27.629Z,292.00
2022-09-26T09:45:27.622Z,324.00
2022-09-26T09:46:27.628Z,336.00
2022-09-26T09:47:27.601Z,344.00
2022-09-26T09:48:27.577Z,344.00
2022-09-26T09:49:27.567Z,336.00
2022-09-26T09:50:27.547Z,344.00
2022-09-26T09:51:27.536Z,368.00
2022-09-26T09:52:27.537Z,408.00
2022-09-26T09:53:27.517Z,428.00
2022-09-26T09:54:27.504Z,448.00
2022-09-26T09:55:27.487Z,464.00
2022-09-26T09:56:27.459Z,476.00
2022-09-26T09:57:27.467Z,484.00
2022-09-26T09:58:27.457Z,476.00
2022-09-26T09:59:27.438Z,464.00
2022-09-26T10:00:27.419Z,432.00
2022-09-26T10:01:27.407Z,376.00
2022-09-26T10:02:27.425Z,308.00
2022-09-26T10:03:27.403Z,300.00
2022-09-26T10:04:27.363Z,312.00
2022-09-26T10:05:27.345Z,348.00
2022-09-26T10:06:45.519Z,416.00
2022-09-26T10:07:28.415Z,436.00
2022-09-26T10:08:27.425Z,392.00
2022-09-26T10:09:38.526Z,464.00
2022-09-26T10:10:28.274Z,568.00
2022-09-26T10:11:27.274Z,612.00
2022-09-26T10:12:27.265Z,640.00
2022-09-26T10:13:27.285Z,656.00
2022-09-26T10:14:27.224Z,668.00
2022-09-26T10:15:27.223Z,680.00
2022-09-26T10:16:27.291Z,688.00
2022-09-26T10:17:27.203Z,688.00
2022-09-26T10:18:27.531Z,684.00
2022-09-26T10:19:27.195Z,692.00
2022-09-26T10:20:27.163Z,708.00
2022-09-26T10:21:27.158Z,728.00
2022-09-26T10:22:27.122Z,752.00
2022-09-26T10:23:27.112Z,764.00
2022-09-26T10:24:27.111Z,780.00
2022-09-26T10:25:27.101Z,800.00
2022-09-26T10:26:31.288Z,820.00
2022-09-26T10:27:27.079Z,852.00
2022-09-26T10:28:27.051Z,864.00
2022-09-26T10:29:27.061Z,860.00
2022-09-26T10:30:27.033Z,844.00
2022-09-26T10:31:27.056Z,828.00
2022-09-26T10:32:26.994Z,832.00
2022-09-26T10:33:26.990Z,816.00
2022-09-26T10:34:26.997Z,772.00
2022-09-26T10:35:26.978Z,732.00
2022-09-26T10:36:26.948Z,696.00
2022-09-26T10:37:26.931Z,664.00
2022-09-26T10:38:26.918Z,636.00
2022-09-26T10:39:26.909Z,612.00
2022-09-26T10:40:26.949Z,596.00
2022-09-26T10:41:26.879Z,576.00
2022-09-26T10:42:31.517Z,564.00
2022-09-26T10:43:27.862Z,556.00
2022-09-26T10:44:26.860Z,544.00
2022-09-26T10:45:26.849Z,532.00
2022-09-26T10:46:26.875Z,520.00
2022-09-26T10:47:26.809Z,504.00
2022-09-26T10:48:26.796Z,488.00
2022-09-26T10:49:26.790Z,476.00
2022-09-26T10:50:26.768Z,464.00
2022-09-26T10:51:26.747Z,456.00
2022-09-26T10:52:26.741Z,456.00
2022-09-26T10:53:26.741Z,452.00
2022-09-26T10:54:26.715Z,456.00
2022-09-26T10:55:26.730Z,464.00
2022-09-26T10:56:26.685Z,468.00
2022-09-26T10:57:26.676Z,480.00
2022-09-26T10:58:26.665Z,492.00
2022-09-26T10:59:26.645Z,508.00
2022-09-26T11:00:26.657Z,528.00
2022-09-26T11:01:26.675Z,556.00
2022-09-26T11:02:26.626Z,588.00
2022-09-26T11:03:26.624Z,628.00
2022-09-26T11:04:26.591Z,664.00
2022-09-26T11:05:26.595Z,704.00
2022-09-26T11:06:26.564Z,752.00
2022-09-26T11:07:26.537Z,792.00
2022-09-26T11:08:26.524Z,844.00
2022-09-26T11:09:26.512Z,872.00
2022-09-26T11:10:26.513Z,880.00
2022-09-26T11:11:26.503Z,884.00
2022-09-26T11:12:26.486Z,880.00
2022-09-26T11:13:26.472Z,852.00
2022-09-26T11:14:28.477Z,856.00
2022-09-26T11:15:26.443Z,876.00
2022-09-26T11:16:26.498Z,896.00
2022-09-26T11:17:26.415Z,920.00
2022-09-26T11:18:26.412Z,932.00
2022-09-26T11:19:26.386Z,968.00
2022-09-26T11:20:26.382Z,992.00
2022-09-26T11:21:29.037Z,1016.00
2022-09-26T11:22:26.352Z,1040.00
2022-09-26T11:23:26.343Z,1036.00
2022-09-26T11:24:26.331Z,1020.00
2022-09-26T11:25:26.303Z,996.00
2022-09-26T11:26:26.334Z,976.00
2022-09-26T11:27:26.282Z,968.00
2022-09-26T11:28:26.275Z,980.00
2022-09-26T11:29:26.260Z,980.00
2022-09-26T11:30:26.250Z,992.00
2022-09-26T11:31:26.270Z,996.00
2022-09-26T11:32:26.230Z,992.00
2022-09-26T11:33:26.209Z,992.00
2022-09-26T11:34:26.209Z,976.00
2022-09-26T11:35:26.196Z,972.00
2022-09-26T11:36:26.183Z,964.00
2022-09-26T11:37:26.173Z,960.00
2022-09-26T11:38:26.164Z,960.00
2022-09-26T11:39:26.126Z,980.00
2022-09-26T11:40:26.188Z,1004.00
2022-09-26T11:41:26.111Z,1032.00
2022-09-26T11:42:26.117Z,1064.00
2022-09-26T11:43:26.077Z,1108.00
2022-09-26T11:44:26.076Z,1124.00
2022-09-26T11:45:26.062Z,1160.00
2022-09-26T11:46:26.099Z,1204.00
2022-09-26T11:47:26.049Z,1172.00
2022-09-26T11:48:26.019Z,1112.00
2022-09-26T11:49:25.997Z,1076.00
2022-09-26T11:50:25.990Z,1064.00
2022-09-26T11:51:25.982Z,1072.00
2022-09-26T11:52:25.957Z,1056.00
2022-09-26T11:53:25.959Z,1068.00
2022-09-26T11:54:25.947Z,1056.00
2022-09-26T11:55:25.945Z,1056.00
2022-09-26T11:56:25.928Z,1044.00
2022-09-26T11:57:25.906Z,1056.00
2022-09-26T11:58:25.907Z,1072.00
2022-09-26T11:59:25.877Z,1056.00
2022-09-26T12:00:25.866Z,1016.00
2022-09-26T12:01:25.855Z,1020.00
2022-09-26T12:02:25.939Z,1020.00
2022-09-26T12:03:25.996Z,996.00
2022-09-26T12:04:25.817Z,972.00
2022-09-26T12:05:27.261Z,944.00
2022-09-26T12:06:25.792Z,924.00
2022-09-26T12:07:25.774Z,912.00
2022-09-26T12:08:25.765Z,896.00
2022-09-26T12:09:25.775Z,892.00
2022-09-26T12:10:25.734Z,904.00
2022-09-26T12:11:25.725Z,916.00
2022-09-26T12:12:26.545Z,928.00
2022-09-26T12:13:25.713Z,948.00
2022-09-26T12:14:25.706Z,964.00
2022-09-26T12:15:25.693Z,952.00
2022-09-26T12:16:25.759Z,976.00
2022-09-26T12:17:25.648Z,964.00
2022-09-26T12:18:25.653Z,952.00
2022-09-26T12:19:25.644Z,936.00
2022-09-26T12:20:25.613Z,944.00
2022-09-26T12:21:25.605Z,960.00
2022-09-26T12:22:25.636Z,960.00
2022-09-26T12:23:25.574Z,952.00
2022-09-26T12:24:25.569Z,932.00
2022-09-26T12:25:25.568Z,924.00
2022-09-26T12:26:25.534Z,916.00
2022-09-26T12:27:25.534Z,904.00
2022-09-26T12:28:25.524Z,884.00
2022-09-26T12:29:25.500Z,856.00
2022-09-26T12:30:25.505Z,824.00
2022-09-26T12:31:25.623Z,776.00
2022-09-26T12:32:25.451Z,740.00
2022-09-26T12:33:25.450Z,716.00
2022-09-26T12:34:25.438Z,700.00
2022-09-26T12:35:25.440Z,676.00
2022-09-26T12:36:25.413Z,620.00
2022-09-26T12:37:25.410Z,560.00
2022-09-26T12:38:25.388Z,508.00
2022-09-26T12:39:25.380Z,476.00
2022-09-26T12:40:25.423Z,468.00
2022-09-26T12:41:25.353Z,468.00
2022-09-26T12:42:25.335Z,480.00
2022-09-26T12:43:25.325Z,492.00
2022-09-26T12:44:25.329Z,500.00
2022-09-26T12:45:25.300Z,496.00
2022-09-26T12:46:25.324Z,484.00
2022-09-26T12:47:25.280Z,460.00
2022-09-26T12:48:25.258Z,444.00
2022-09-26T12:49:25.255Z,440.00
2022-09-26T12:50:25.241Z,440.00
2022-09-26T12:51:25.238Z,444.00